createdAt,value
2018-07-22T00:02:10.762Z,18.20
2018-07-22T00:04:38.857Z,18.10
2018-07-22T00:07:06.997Z,18.10
2018-07-22T00:09:35.080Z,18.10
2018-07-22T00:14:31.175Z,18.00
2018-07-22T00:16:59.341Z,18.00
2018-07-22T00:19:27.421Z,18.00
2018-07-22T00:21:55.649Z,18.00
2018-07-22T00:24:23.724Z,17.90
2018-07-22T00:26:51.854Z,17.90
2018-07-22T00:29:20.179Z,18.00
2018-07-22T00:31:48.366Z,18.00
2018-07-22T00:34:16.410Z,17.90
2018-07-22T00:39:12.476Z,17.90
2018-07-22T00:41:40.741Z,17.90
2018-07-22T00:44:08.850Z,17.90
2018-07-22T00:46:37.010Z,17.90
2018-07-22T00:49:05.112Z,17.90
2018-07-22T00:51:33.269Z,18.00
2018-07-22T00:54:01.365Z,18.00
2018-07-22T00:56:29.455Z,18.00
2018-07-22T00:58:57.535Z,17.90
2018-07-22T01:01:25.629Z,18.00
2018-07-22T01:03:53.710Z,18.00
2018-07-22T01:06:21.814Z,18.00
2018-07-22T01:08:49.969Z,17.90
2018-07-22T01:11:18.158Z,17.90
2018-07-22T01:13:46.228Z,17.90
2018-07-22T01:16:14.344Z,17.90
2018-07-22T01:18:42.391Z,17.90
2018-07-22T01:21:10.488Z,17.90
2018-07-22T01:23:38.545Z,17.90
2018-07-22T01:26:06.649Z,17.90
2018-07-22T01:28:34.724Z,17.90
2018-07-22T01:31:02.811Z,17.90
2018-07-22T01:35:58.719Z,17.80
2018-07-22T01:38:26.760Z,17.80
2018-07-22T01:40:54.875Z,17.70
2018-07-22T01:43:23.140Z,17.70
2018-07-22T01:45:51.312Z,17.60
2018-07-22T01:48:19.380Z,17.60
2018-07-22T01:50:47.453Z,17.60
2018-07-22T01:53:15.581Z,17.70
2018-07-22T01:55:43.756Z,17.60
2018-07-22T01:58:11.855Z,17.60
2018-07-22T02:00:39.957Z,17.60
2018-07-22T02:05:35.960Z,17.50
2018-07-22T02:08:04.042Z,17.50
2018-07-22T02:10:32.134Z,17.50
2018-07-22T02:13:00.292Z,17.50
2018-07-22T02:15:28.359Z,17.50
2018-07-22T02:17:56.447Z,17.50
2018-07-22T02:20:24.594Z,17.50
2018-07-22T02:22:52.695Z,17.40
2018-07-22T02:25:20.748Z,17.40
2018-07-22T02:27:48.856Z,17.30
2018-07-22T02:30:16.955Z,17.30
2018-07-22T02:32:45.032Z,17.30
2018-07-22T02:35:13.052Z,17.40
2018-07-22T02:37:41.128Z,17.50
2018-07-22T02:40:09.259Z,17.50
2018-07-22T02:42:37.372Z,17.50
2018-07-22T02:45:05.454Z,17.50
2018-07-22T02:50:01.470Z,17.50
2018-07-22T02:52:29.557Z,17.40
2018-07-22T02:54:57.673Z,17.40
2018-07-22T02:57:25.739Z,17.50
2018-07-22T02:59:53.855Z,17.50
2018-07-22T03:02:21.990Z,17.40
2018-07-22T03:04:50.056Z,17.30
2018-07-22T03:07:18.154Z,17.30
2018-07-22T03:09:46.230Z,17.20
2018-07-22T03:12:14.327Z,17.20
2018-07-22T03:14:42.392Z,17.20
2018-07-22T03:17:12.327Z,17.20
2018-07-22T03:19:40.399Z,17.30
2018-07-22T03:22:08.535Z,17.20
2018-07-22T03:24:36.721Z,17.30
2018-07-22T03:27:05.102Z,17.30
2018-07-22T03:29:33.193Z,17.30
2018-07-22T03:32:01.305Z,17.30
2018-07-22T03:34:29.384Z,17.20
2018-07-22T03:36:57.487Z,17.20
2018-07-22T03:39:25.904Z,17.10
2018-07-22T03:41:54.611Z,17.10
2018-07-22T03:44:22.676Z,17.10
2018-07-22T03:46:50.749Z,17.10
2018-07-22T03:49:18.816Z,17.10
2018-07-22T03:51:46.895Z,17.10
2018-07-22T03:54:15.040Z,17.10
2018-07-22T03:56:43.120Z,17.00
2018-07-22T03:59:11.208Z,17.00
2018-07-22T04:01:40.123Z,17.10
2018-07-22T04:04:08.193Z,17.00
2018-07-22T04:06:36.275Z,16.80
2018-07-22T04:09:06.745Z,16.80
2018-07-22T04:11:34.820Z,16.80
2018-07-22T04:14:03.050Z,16.80
2018-07-22T04:16:31.250Z,16.90
2018-07-22T04:18:59.377Z,16.90
2018-07-22T04:21:27.555Z,16.80
2018-07-22T04:23:55.616Z,16.80
2018-07-22T04:26:23.758Z,16.70
2018-07-22T04:28:51.919Z,16.80
2018-07-22T04:31:20.308Z,16.90
2018-07-22T04:33:48.501Z,17.00
2018-07-22T04:36:16.595Z,17.00
2018-07-22T04:38:44.649Z,17.10
2018-07-22T04:41:12.757Z,17.20
2018-07-22T04:43:40.825Z,17.30
2018-07-22T04:46:08.911Z,17.30
2018-07-22T04:48:37.002Z,17.30
2018-07-22T04:51:05.124Z,17.40
2018-07-22T04:53:33.300Z,17.50
2018-07-22T04:56:01.283Z,17.50
2018-07-22T04:58:29.328Z,17.50
2018-07-22T05:00:57.422Z,17.60
2018-07-22T05:08:22.085Z,17.80
2018-07-22T05:10:50.223Z,17.80
2018-07-22T05:13:18.345Z,17.80
2018-07-22T05:15:46.402Z,17.90
2018-07-22T05:18:14.505Z,18.00
2018-07-22T05:20:42.556Z,18.00
2018-07-22T05:23:10.690Z,18.00
2018-07-22T05:25:38.750Z,18.10
2018-07-22T05:28:06.833Z,18.20
2018-07-22T05:33:02.796Z,18.30
2018-07-22T05:35:30.861Z,18.40
2018-07-22T05:37:58.933Z,18.40
2018-07-22T05:40:27.045Z,18.40
2018-07-22T05:42:55.149Z,18.40
2018-07-22T05:45:23.271Z,18.50
2018-07-22T05:47:51.340Z,18.40
2018-07-22T05:50:19.404Z,18.50
2018-07-22T05:52:47.639Z,18.70
2018-07-22T05:55:15.747Z,18.80
2018-07-22T05:57:43.837Z,18.80
2018-07-22T06:00:12.060Z,18.90
2018-07-22T06:02:40.142Z,19.00
2018-07-22T06:05:08.262Z,19.00
2018-07-22T06:07:36.362Z,19.10
2018-07-22T06:10:05.254Z,19.20
2018-07-22T06:12:33.320Z,19.30
2018-07-22T06:15:01.425Z,19.40
2018-07-22T06:19:57.420Z,19.60
2018-07-22T06:22:25.658Z,19.60
2018-07-22T06:24:53.847Z,19.50
2018-07-22T06:27:21.944Z,19.40
2018-07-22T06:29:50.180Z,19.50
2018-07-22T06:32:18.325Z,19.70
2018-07-22T06:34:46.392Z,19.90
2018-07-22T06:37:14.441Z,20.20
2018-07-22T06:39:42.750Z,20.30
2018-07-22T06:42:10.798Z,20.20
2018-07-22T06:44:38.898Z,20.10
2018-07-22T06:47:07.072Z,20.30
2018-07-22T06:49:35.184Z,20.50
2018-07-22T06:52:03.469Z,20.70
2018-07-22T06:54:31.591Z,20.70
2018-07-22T06:56:59.700Z,20.90
2018-07-22T06:59:27.787Z,21.20
2018-07-22T07:01:55.912Z,21.30
2018-07-22T07:04:24.057Z,21.30
2018-07-22T07:06:52.175Z,21.50
2018-07-22T07:09:20.321Z,21.80
2018-07-22T07:11:48.481Z,22.00
2018-07-22T07:14:16.700Z,21.90
2018-07-22T07:16:44.996Z,21.80
2018-07-22T07:19:13.136Z,21.60
2018-07-22T07:21:41.374Z,21.80
2018-07-22T07:24:09.487Z,22.00
2018-07-22T07:29:05.533Z,22.20
2018-07-22T07:31:33.623Z,22.00
2018-07-22T07:34:01.782Z,22.00
2018-07-22T07:41:27.078Z,22.00
2018-07-22T07:43:59.785Z,22.20
2018-07-22T07:46:28.050Z,22.40
2018-07-22T07:48:57.142Z,22.40
2018-07-22T07:51:25.266Z,22.70
2018-07-22T07:53:53.360Z,22.70
2018-07-22T07:56:21.493Z,22.70
2018-07-22T07:58:50.626Z,22.40
2018-07-22T08:01:18.915Z,22.50
2018-07-22T08:03:47.044Z,22.60
2018-07-22T08:08:43.707Z,23.30
2018-07-22T08:11:11.928Z,23.70
2018-07-22T08:13:40.154Z,24.40
2018-07-22T08:18:36.255Z,24.70
2018-07-22T08:21:04.968Z,24.80
2018-07-22T08:26:01.196Z,25.00
2018-07-22T08:28:40.888Z,24.70
2018-07-22T08:31:09.998Z,24.70
2018-07-22T08:33:38.760Z,24.50
2018-07-22T08:36:06.988Z,24.70
2018-07-22T08:38:35.146Z,24.80
2018-07-22T08:43:31.278Z,24.70
2018-07-22T08:45:59.441Z,24.80
2018-07-22T08:48:27.706Z,24.80
2018-07-22T08:50:56.714Z,25.10
2018-07-22T08:53:24.869Z,25.20
2018-07-22T08:55:53.021Z,25.40
2018-07-22T08:58:21.715Z,25.50
2018-07-22T09:00:49.879Z,25.70
2018-07-22T09:03:18.145Z,26.00
2018-07-22T09:05:46.291Z,26.20
2018-07-22T09:08:14.924Z,26.10
2018-07-22T09:10:43.579Z,26.00
2018-07-22T09:13:12.469Z,26.10
2018-07-22T09:15:40.704Z,26.30
2018-07-22T09:18:09.038Z,26.70
2018-07-22T09:20:37.713Z,26.60
2018-07-22T09:25:33.780Z,26.50
2018-07-22T09:28:02.692Z,26.40
2018-07-22T09:30:30.811Z,26.30
2018-07-22T09:32:58.985Z,26.30
2018-07-22T09:35:27.205Z,26.70
2018-07-22T09:37:55.387Z,27.30
2018-07-22T09:40:23.552Z,27.40
2018-07-22T09:45:19.614Z,27.70
2018-07-22T09:47:47.743Z,27.90
2018-07-22T09:50:15.919Z,28.40
2018-07-22T09:52:44.081Z,28.30
2018-07-22T09:55:12.321Z,27.80
2018-07-22T09:57:41.399Z,27.90
2018-07-22T10:00:09.595Z,27.40
2018-07-22T10:02:37.821Z,27.30
2018-07-22T10:05:06.841Z,27.10
2018-07-22T10:07:34.947Z,27.30
2018-07-22T10:10:03.287Z,27.80
2018-07-22T10:12:32.133Z,28.90
2018-07-22T10:15:00.311Z,30.00
2018-07-22T10:17:28.553Z,30.50
2018-07-22T10:19:57.001Z,30.30
2018-07-22T10:22:25.308Z,30.20
2018-07-22T10:24:53.456Z,30.30
2018-07-22T10:27:21.579Z,30.00
2018-07-22T10:29:49.725Z,29.80
2018-07-22T10:32:17.919Z,30.40
2018-07-22T10:34:46.034Z,30.40
2018-07-22T10:37:14.221Z,30.30
2018-07-22T10:39:42.373Z,30.40
2018-07-22T10:42:10.596Z,30.30
2018-07-22T10:44:38.721Z,31.20
2018-07-22T10:47:07.082Z,31.30
2018-07-22T10:49:35.702Z,30.90
2018-07-22T10:52:04.074Z,30.10
2018-07-22T10:54:32.601Z,30.80
2018-07-22T10:57:00.728Z,30.80
2018-07-22T10:59:28.811Z,30.10
2018-07-22T11:04:25.370Z,29.30
2018-07-22T11:06:53.502Z,29.00
2018-07-22T11:09:21.959Z,28.40
2018-07-22T11:11:50.077Z,28.60
2018-07-22T11:14:18.305Z,29.00
2018-07-22T11:16:46.442Z,30.00
2018-07-22T11:19:14.597Z,29.70
2018-07-22T11:21:42.697Z,30.40
2018-07-22T11:24:10.834Z,30.90
2018-07-22T11:26:39.022Z,30.60
2018-07-22T11:29:07.285Z,29.70
2018-07-22T11:31:35.405Z,29.50
2018-07-22T11:34:03.518Z,28.90
2018-07-22T11:36:31.698Z,28.50
2018-07-22T11:38:59.865Z,28.20
2018-07-22T11:41:27.987Z,27.70
2018-07-22T11:43:56.171Z,27.30
2018-07-22T11:46:24.243Z,27.20
2018-07-22T11:48:52.375Z,26.90
2018-07-22T11:51:20.507Z,26.90
2018-07-22T11:53:48.610Z,26.70
2018-07-22T11:56:16.727Z,26.60
2018-07-22T12:01:13.557Z,26.30
2018-07-22T12:06:09.632Z,26.40
2018-07-22T12:08:37.742Z,26.50
2018-07-22T12:11:05.912Z,26.50
2018-07-22T12:13:34.077Z,26.60
2018-07-22T12:16:02.165Z,26.60
2018-07-22T12:18:30.379Z,26.70
2018-07-22T12:23:26.456Z,26.90
2018-07-22T12:25:54.573Z,26.80
2018-07-22T12:28:22.745Z,26.70
2018-07-22T12:30:50.812Z,26.70
2018-07-22T12:33:19.089Z,26.50
2018-07-22T12:35:47.314Z,26.40
2018-07-22T12:38:15.414Z,26.10
2018-07-22T12:40:43.490Z,26.00
2018-07-22T12:43:11.795Z,25.80
2018-07-22T12:45:39.950Z,25.80
2018-07-22T12:48:08.077Z,25.70
2018-07-22T12:50:36.238Z,25.50
2018-07-22T12:53:04.352Z,25.40
2018-07-22T12:55:32.435Z,25.20
2018-07-22T12:58:00.524Z,25.10
2018-07-22T13:00:28.637Z,24.90
2018-07-22T13:02:56.791Z,24.90
2018-07-22T13:05:24.868Z,24.90
2018-07-22T13:07:52.981Z,24.70
2018-07-22T13:10:21.139Z,24.50
2018-07-22T13:12:49.308Z,24.40
2018-07-22T13:15:17.468Z,24.40
2018-07-22T13:17:45.595Z,24.30
2018-07-22T13:20:13.761Z,24.30
2018-07-22T13:22:41.900Z,24.20
2018-07-22T13:25:10.027Z,24.10
2018-07-22T13:27:38.281Z,23.90
2018-07-22T13:30:06.884Z,23.90
2018-07-22T13:32:35.039Z,23.80
2018-07-22T13:35:03.856Z,23.80
2018-07-22T13:37:31.970Z,23.60
2018-07-22T13:40:00.083Z,23.50
2018-07-22T13:42:28.168Z,23.50
2018-07-22T13:44:56.303Z,23.50
2018-07-22T13:47:24.417Z,23.50
2018-07-22T13:49:52.524Z,23.40
2018-07-22T13:52:20.638Z,23.50
2018-07-22T13:54:48.727Z,23.50
2018-07-22T13:57:16.849Z,23.40
2018-07-22T13:59:44.942Z,23.40
2018-07-22T14:02:13.061Z,23.30
2018-07-22T14:04:41.124Z,23.30
2018-07-22T14:07:09.340Z,23.30
2018-07-22T14:09:37.542Z,23.20
2018-07-22T14:12:05.725Z,23.10
2018-07-22T14:14:33.805Z,23.10
2018-07-22T14:17:02.899Z,23.10
2018-07-22T14:19:31.017Z,23.20
2018-07-22T14:21:59.131Z,23.30
2018-07-22T14:24:27.373Z,23.40
2018-07-22T14:26:55.471Z,23.50
2018-07-22T14:31:51.528Z,23.60
2018-07-22T14:34:19.763Z,23.60
2018-07-22T14:36:47.865Z,23.60
2018-07-22T14:39:16.745Z,23.60
2018-07-22T14:41:44.855Z,23.50
2018-07-22T14:44:13.067Z,23.50
2018-07-22T14:49:09.285Z,23.50
2018-07-22T14:51:37.400Z,23.50
2018-07-22T14:54:05.565Z,23.60
2018-07-22T14:56:33.773Z,23.60
2018-07-22T14:59:02.569Z,23.60
2018-07-22T15:01:30.739Z,23.50
2018-07-22T15:03:58.891Z,23.40
2018-07-22T15:06:26.985Z,23.50
2018-07-22T15:08:55.065Z,23.40
2018-07-22T15:11:23.217Z,23.40
2018-07-22T15:13:51.428Z,23.30
2018-07-22T15:16:19.660Z,23.30
2018-07-22T15:18:47.860Z,23.20
2018-07-22T15:21:16.126Z,23.20
2018-07-22T15:23:44.336Z,23.10
2018-07-22T15:26:12.465Z,23.10
2018-07-22T15:28:40.625Z,23.10
2018-07-22T15:31:08.796Z,22.90
2018-07-22T15:33:36.948Z,22.90
2018-07-22T15:36:05.082Z,22.90
2018-07-22T15:38:33.244Z,22.90
2018-07-22T15:41:02.095Z,23.00
2018-07-22T15:43:30.238Z,23.00
2018-07-22T15:45:58.424Z,23.00
2018-07-22T15:48:26.626Z,23.00
2018-07-22T15:50:54.767Z,23.10
2018-07-22T15:53:22.891Z,22.90
2018-07-22T15:55:51.151Z,22.90
2018-07-22T15:58:19.254Z,23.10
2018-07-22T16:00:47.398Z,23.20
2018-07-22T16:03:15.479Z,23.30
2018-07-22T16:05:43.761Z,23.40
2018-07-22T16:08:11.909Z,23.50
2018-07-22T16:10:40.044Z,23.60
2018-07-22T16:13:08.170Z,23.60
2018-07-22T16:15:36.282Z,23.60
2018-07-22T16:18:04.497Z,23.60
2018-07-22T16:20:32.702Z,23.60
2018-07-22T16:23:00.857Z,23.60
2018-07-22T16:25:28.932Z,23.50
2018-07-22T16:27:57.424Z,23.60
2018-07-22T16:32:53.513Z,23.70
2018-07-22T16:35:21.646Z,23.60
2018-07-22T16:40:17.700Z,23.50
2018-07-22T16:42:45.825Z,23.50
2018-07-22T16:45:13.959Z,23.50
2018-07-22T16:47:42.184Z,23.60
2018-07-22T16:50:10.306Z,23.70
2018-07-22T16:52:38.479Z,23.70
2018-07-22T16:55:06.607Z,23.60
2018-07-22T16:57:34.724Z,23.70
2018-07-22T17:00:02.845Z,23.60
2018-07-22T17:02:30.982Z,23.50
2018-07-22T17:04:59.133Z,23.30
2018-07-22T17:07:27.239Z,23.30
2018-07-22T17:09:55.388Z,23.30
2018-07-22T17:12:23.534Z,23.30
2018-07-22T17:14:51.737Z,23.10
2018-07-22T17:17:19.838Z,23.10
2018-07-22T17:19:48.112Z,23.00
2018-07-22T17:22:16.301Z,23.00
2018-07-22T17:24:44.581Z,22.80
2018-07-22T17:27:12.843Z,22.80
2018-07-22T17:29:40.965Z,22.80
2018-07-22T17:32:09.088Z,22.70
2018-07-22T17:34:37.258Z,22.70
2018-07-22T17:37:05.361Z,22.70
2018-07-22T17:39:33.499Z,22.60
2018-07-22T17:42:01.672Z,22.50
2018-07-22T17:44:29.809Z,22.60
2018-07-22T17:46:57.929Z,22.50
2018-07-22T17:49:26.087Z,22.40
2018-07-22T17:51:54.185Z,22.40
2018-07-22T17:54:22.286Z,22.40
2018-07-22T17:56:50.440Z,22.30
2018-07-22T17:59:18.668Z,22.20
2018-07-22T18:06:42.805Z,22.10
2018-07-22T18:09:10.998Z,22.10
2018-07-22T18:11:39.186Z,22.10
2018-07-22T18:14:07.372Z,22.00
2018-07-22T18:16:36.032Z,22.00
2018-07-22T18:19:04.284Z,22.00
2018-07-22T18:24:00.373Z,21.90
2018-07-22T18:26:28.523Z,21.90
2018-07-22T18:28:56.664Z,21.90
2018-07-22T18:31:24.765Z,21.80
2018-07-22T18:33:52.888Z,21.80
2018-07-22T18:36:21.438Z,21.70
2018-07-22T18:38:49.668Z,21.70
2018-07-22T18:41:17.859Z,21.70
2018-07-22T18:43:46.295Z,21.70
2018-07-22T18:46:14.721Z,21.70
2018-07-22T18:48:43.116Z,21.70
2018-07-22T18:51:11.574Z,21.70
2018-07-22T18:53:39.947Z,21.70
2018-07-22T18:56:08.377Z,21.60
2018-07-22T18:58:36.869Z,21.60
2018-07-22T19:03:33.594Z,21.50
2018-07-22T19:06:02.128Z,21.50
2018-07-22T19:08:30.763Z,21.50
2018-07-22T19:10:59.165Z,21.50
2018-07-22T19:13:27.611Z,21.50
2018-07-22T19:15:56.689Z,21.40
2018-07-22T19:18:25.119Z,21.40
2018-07-22T19:23:21.932Z,21.40
2018-07-22T19:25:50.386Z,21.40
2018-07-22T19:28:18.805Z,21.40
2018-07-22T19:30:47.229Z,21.40
2018-07-22T19:33:15.915Z,21.40
2018-07-22T19:35:44.376Z,21.40
2018-07-22T19:38:12.861Z,21.30
2018-07-22T19:43:09.599Z,21.20
2018-07-22T19:45:38.057Z,21.10
2018-07-22T19:48:06.874Z,21.20
2018-07-22T19:50:35.343Z,21.20
2018-07-22T19:53:03.810Z,21.20
2018-07-22T19:55:32.269Z,21.10
2018-07-22T19:58:00.784Z,21.10
2018-07-22T20:00:29.331Z,21.10
2018-07-22T20:02:57.775Z,21.00
2018-07-22T20:05:27.014Z,21.00
2018-07-22T20:07:55.408Z,21.00
2018-07-22T20:10:23.806Z,20.90
2018-07-22T20:12:52.476Z,21.00
2018-07-22T20:15:20.886Z,20.90
2018-07-22T20:17:49.262Z,20.90
2018-07-22T20:20:18.258Z,20.80
2018-07-22T20:22:47.115Z,20.70
2018-07-22T20:25:15.519Z,20.70
2018-07-22T20:27:43.719Z,20.60
2018-07-22T20:30:11.804Z,20.60
2018-07-22T20:32:39.892Z,20.50
2018-07-22T20:35:08.019Z,20.50
2018-07-22T20:37:36.498Z,20.50
2018-07-22T20:40:05.111Z,20.40
2018-07-22T20:42:33.296Z,20.30
2018-07-22T20:45:01.460Z,20.30
2018-07-22T20:47:29.568Z,20.30
2018-07-22T20:49:57.932Z,20.30
2018-07-22T20:52:26.072Z,20.30
2018-07-22T20:54:54.204Z,20.30
2018-07-22T20:59:50.434Z,20.10
2018-07-22T21:02:18.595Z,20.10
2018-07-22T21:04:46.705Z,20.00
2018-07-22T21:09:42.630Z,19.90
2018-07-22T21:12:48.804Z,19.90
2018-07-22T21:15:17.293Z,19.90
2018-07-22T21:17:46.795Z,19.90
2018-07-22T21:20:16.269Z,19.90
2018-07-22T21:22:44.484Z,20.00
2018-07-22T21:25:13.626Z,20.00
2018-07-22T21:27:41.801Z,19.90
2018-07-22T21:30:11.231Z,19.80
2018-07-22T21:32:39.786Z,19.80
2018-07-22T21:35:08.020Z,19.80
2018-07-22T21:37:36.331Z,19.80
2018-07-22T21:40:05.127Z,19.70
2018-07-22T21:42:33.551Z,19.70
2018-07-22T21:47:30.221Z,19.80
2018-07-22T21:49:58.379Z,19.80
2018-07-22T21:52:26.650Z,19.70
2018-07-22T21:54:54.856Z,19.70
2018-07-22T21:57:23.122Z,19.60
2018-07-22T21:59:51.389Z,19.60
2018-07-22T22:02:19.478Z,19.60
2018-07-22T22:04:47.778Z,19.50
2018-07-22T22:07:15.983Z,19.50
2018-07-22T22:09:44.233Z,19.50
2018-07-22T22:12:12.433Z,19.50
2018-07-22T22:14:40.884Z,19.50
2018-07-22T22:17:08.997Z,19.50
2018-07-22T22:19:37.277Z,19.50
2018-07-22T22:22:05.485Z,19.50
2018-07-22T22:24:33.800Z,19.40
2018-07-22T22:27:01.908Z,19.50
2018-07-22T22:29:30.185Z,19.50
2018-07-22T22:31:58.530Z,19.40
2018-07-22T22:34:26.579Z,19.30
2018-07-22T22:36:54.753Z,19.40
2018-07-22T22:39:22.899Z,19.30
2018-07-22T22:41:51.045Z,19.30
2018-07-22T22:44:19.169Z,19.20
2018-07-22T22:46:47.272Z,19.20
2018-07-22T22:49:15.349Z,19.20
2018-07-22T22:51:43.404Z,19.10
2018-07-22T22:54:11.522Z,19.10
2018-07-22T22:56:39.604Z,19.00
2018-07-22T22:59:16.653Z,19.00
2018-07-22T23:01:45.159Z,19.00
2018-07-22T23:04:13.351Z,19.10
2018-07-22T23:06:41.534Z,19.00
2018-07-22T23:09:11.407Z,18.90
2018-07-22T23:11:39.792Z,18.80
2018-07-22T23:14:08.052Z,18.80
2018-07-22T23:16:36.436Z,18.80
2018-07-22T23:19:04.588Z,18.80
2018-07-22T23:21:32.771Z,18.80
2018-07-22T23:24:01.064Z,18.80
2018-07-22T23:26:29.887Z,18.80
2018-07-22T23:28:57.938Z,18.90
2018-07-22T23:31:26.096Z,18.90
2018-07-22T23:33:54.444Z,18.80
2018-07-22T23:36:22.516Z,18.80
2018-07-22T23:38:50.647Z,18.80
2018-07-22T23:43:46.805Z,18.70
2018-07-22T23:46:14.905Z,18.70
2018-07-22T23:48:42.977Z,18.60
2018-07-22T23:51:11.026Z,18.50
2018-07-22T23:53:39.101Z,18.50
2018-07-22T23:56:07.168Z,18.60
2018-07-22T23:58:35.259Z,18.60
